Map

Track Data

SID SEASON NUMBER BASIN SUBBASIN NAME ISO_TIME NATURE LAT LON WMO_WIND WMO_PRES WMO_AGENCY TRACK_TYPE DIST2LAND LANDFALL IFLAG USA_AGENCY USA_ATCF_ID USA_LAT USA_LON USA_RECORD USA_STATUS USA_WIND USA_PRES USA_SSHS USA_R34_NE USA_R34_SE USA_R34_SW USA_R34_NW USA_R50_NE USA_R50_SE USA_R50_SW USA_R50_NW USA_R64_NE USA_R64_SE USA_R64_SW USA_R64_NW USA_POCI USA_ROCI USA_RMW USA_EYE TOKYO_LAT TOKYO_LON TOKYO_GRADE TOKYO_WIND TOKYO_PRES TOKYO_R50_DIR TOKYO_R50_LONG TOKYO_R50_SHORT TOKYO_R30_DIR TOKYO_R30_LONG TOKYO_R30_SHORT TOKYO_LAND CMA_LAT CMA_LON CMA_CAT CMA_WIND CMA_PRES HKO_LAT HKO_LON HKO_CAT HKO_WIND HKO_PRES NEWDELHI_LAT NEWDELHI_LON NEWDELHI_GRADE NEWDELHI_WIND NEWDELHI_PRES NEWDELHI_CI NEWDELHI_DP NEWDELHI_POCI REUNION_LAT REUNION_LON REUNION_TYPE REUNION_WIND REUNION_PRES REUNION_TNUM REUNION_CI REUNION_RMW REUNION_R34_NE REUNION_R34_SE REUNION_R34_SW REUNION_R34_NW REUNION_R50_NE REUNION_R50_SE REUNION_R50_SW REUNION_R50_NW REUNION_R64_NE REUNION_R64_SE REUNION_R64_SW REUNION_R64_NW BOM_LAT BOM_LON BOM_TYPE BOM_WIND BOM_PRES BOM_TNUM BOM_CI BOM_RMW BOM_R34_NE BOM_R34_SE BOM_R34_SW BOM_R34_NW BOM_R50_NE BOM_R50_SE BOM_R50_SW BOM_R50_NW BOM_R64_NE BOM_R64_SE BOM_R64_SW BOM_R64_NW BOM_ROCI BOM_POCI BOM_EYE BOM_POS_METHOD BOM_PRES_METHOD NADI_LAT NADI_LON NADI_CAT NADI_WIND NADI_PRES WELLINGTON_LAT WELLINGTON_LON WELLINGTON_WIND WELLINGTON_PRES DS824_LAT DS824_LON DS824_STAGE DS824_WIND DS824_PRES TD9636_LAT TD9636_LON TD9636_STAGE TD9636_WIND TD9636_PRES TD9635_LAT TD9635_LON TD9635_WIND TD9635_PRES TD9635_ROCI NEUMANN_LAT NEUMANN_LON NEUMANN_CLASS NEUMANN_WIND NEUMANN_PRES MLC_LAT MLC_LON MLC_CLASS MLC_WIND MLC_PRES USA_GUST BOM_GUST BOM_GUST_PER REUNION_GUST REUNION_GUST_PER USA_SEAHGT USA_SEARAD_NE USA_SEARAD_SE USA_SEARAD_SW USA_SEARAD_NW STORM_SPEED STORM_DIR
1983221N13254 1983 43 EP MM ISMAEL 1983-08-08 18:00:00 TS 12.6000 -106.500 30 hurdat_epa main 714 709 O_________O___ hurdat_epa EP091983 12.6000 -106.500 TD 30 -1 12.6000 -106.500 1 30 13 300
1983221N13254 1983 43 EP MM ISMAEL 1983-08-08 21:00:00 TS 12.9130 -107.058 main 716 707 P_________P___ EP091983 12.9177 -107.057 TD 32 -1 12.8986 -107.060 1 32 12 299
1983221N13254 1983 43 EP MM ISMAEL 1983-08-09 00:00:00 TS 13.2000 -107.600 35 hurdat_epa main 719 717 O_________O___ hurdat_epa EP091983 13.2000 -107.600 TS 35 0 13.2000 -107.600 2 35 12 298
1983221N13254 1983 43 EP MM ISMAEL 1983-08-09 03:00:00 TS 13.4532 -108.113 main 728 728 P_________P___ EP091983 13.4349 -108.115 TS 35 0 13.5080 -108.105 2 35 11 299
1983221N13254 1983 43 EP MM ISMAEL 1983-08-09 06:00:00 TS 13.7314 -108.595 35 hurdat_epa main 736 725 O_________P___ hurdat_epa EP091983 13.7000 -108.600 TS 35 0 13.8256 -108.581 2 35 11 305
1983221N13254 1983 43 EP MM ISMAEL 1983-08-09 09:00:00 TS 14.0969 -109.048 main 725 718 P_________P___ EP091983 14.0773 -109.050 TS 35 0 14.1554 -109.042 2 35 12 311
1983221N13254 1983 43 EP MM ISMAEL 1983-08-09 12:00:00 TS 14.5000 -109.500 35 hurdat_epa main 725 724 O_________O___ hurdat_epa EP091983 14.5000 -109.500 TS 35 0 14.5000 -109.500 2 35 12 311
1983221N13254 1983 43 EP MM ISMAEL 1983-08-09 15:00:00 TS 14.8968 -109.999 main 731 731 P_________P___ EP091983 14.9075 -110.000 TS 40 0 14.8647 -109.995 2 40 12 309
1983221N13254 1983 43 EP MM ISMAEL 1983-08-09 18:00:00 TS 15.2856 -110.497 45 hurdat_epa main 739 739 O_________P___ hurdat_epa EP091983 15.3000 -110.500 TS 45 0 15.2425 -110.487 2 45 12 309
1983221N13254 1983 43 EP MM ISMAEL 1983-08-09 21:00:00 TS 15.6547 -110.970 main 751 751 P_________P___ EP091983 15.6649 -110.973 TS 50 0 15.6241 -110.961 2 50 11 309
1983221N13254 1983 43 EP MM ISMAEL 1983-08-10 00:00:00 TS 16.0000 -111.400 55 hurdat_epa main 766 759 O_________O___ hurdat_epa EP091983 16.0000 -111.400 TS 55 0 16.0000 -111.400 2 55 10 310
1983221N13254 1983 43 EP MM ISMAEL 1983-08-10 03:00:00 TS 16.3000 -111.770 main 761 738 P_________P___ EP091983 16.2924 -111.765 TS 55 0 16.3231 -111.785 2 55 9 312
1983221N13254 1983 43 EP MM ISMAEL 1983-08-10 06:00:00 TS 16.6112 -112.109 55 hurdat_epa main 738 705 O_________P___ hurdat_epa EP091983 16.6000 -112.100 TS 55 0 16.6449 -112.135 2 55 9 316
1983221N13254 1983 43 EP MM ISMAEL 1983-08-10 09:00:00 TS 16.9760 -112.455 main 709 680 P_________P___ EP091983 16.9699 -112.450 TS 55 0 16.9942 -112.468 2 55 10 320
1983221N13254 1983 43 EP MM ISMAEL 1983-08-10 12:00:00 TS 17.4000 -112.800 55 hurdat_epa main 680 645 O_________O___ hurdat_epa EP091983 17.4000 -112.800 TS 55 0 17.4000 -112.800 2 55 11 325
1983221N13254 1983 43 EP MM ISMAEL 1983-08-10 15:00:00 TS 17.8849 -113.127 main 645 621 P_________P___ EP091983 17.8848 -113.128 TS 60 0 17.8851 -113.126 2 60 12 326
1983221N13254 1983 43 EP MM ISMAEL 1983-08-10 18:00:00 TS 18.4000 -113.500 65 hurdat_epa main 621 604 O_________O___ hurdat_epa EP091983 18.4000 -113.500 HU 65 1 18.4000 -113.500 3 65 13 321
1983221N13254 1983 43 EP MM ISMAEL 1983-08-10 21:00:00 TS 18.9283 -114.011 main 610 600 P_________P___ EP091983 18.9303 -114.015 HU 70 1 18.9223 -114.000 3 70 14 317
1983221N13254 1983 43 EP MM ISMAEL 1983-08-11 00:00:00 TS 19.4000 -114.500 75 hurdat_epa main 608 604 O_________O___ hurdat_epa EP091983 19.4000 -114.500 HU 75 1 19.4000 -114.500 4 75 11 317
1983221N13254 1983 43 EP MM ISMAEL 1983-08-11 03:00:00 TS 19.7410 -114.805 main 612 601 P_________P___ EP091983 19.7372 -114.788 HU 77 1 19.7524 -114.856 4 77 8 320
1983221N13254 1983 43 EP MM ISMAEL 1983-08-11 06:00:00 TS 20.0052 -115.029 80 hurdat_epa main 601 594 O_________P___ hurdat_epa EP091983 20.0000 -115.000 HU 80 1 20.0208 -115.118 4 80 7 319
1983221N13254 1983 43 EP MM ISMAEL 1983-08-11 09:00:00 TS 20.2453 -115.273 main 600 584 P_________P___ EP091983 20.2425 -115.258 HU 82 1 20.2539 -115.320 4 82 7 318
1983221N13254 1983 43 EP MM ISMAEL 1983-08-11 12:00:00 TS 20.5000 -115.500 85 hurdat_epa main 584 571 O_________O___ hurdat_epa EP091983 20.5000 -115.500 HU 85 2 20.5000 -115.500 4 85 7 325
1983221N13254 1983 43 EP MM ISMAEL 1983-08-11 15:00:00 TS 20.8313 -115.712 main 571 551 P_________P___ EP091983 20.8350 -115.708 HU 82 1 20.8202 -115.727 4 82 8 331
1983221N13254 1983 43 EP MM ISMAEL 1983-08-11 18:00:00 TS 21.1906 -115.909 80 hurdat_epa main 551 542 O_________P___ hurdat_epa EP091983 21.2000 -115.900 HU 80 1 21.1624 -115.938 4 80 8 332
1983221N13254 1983 43 EP MM ISMAEL 1983-08-11 21:00:00 TS 21.5490 -116.119 main 542 528 P_________P___ EP091983 21.5575 -116.115 HU 77 1 21.5234 -116.130 4 77 8 333
1983221N13254 1983 43 EP MM ISMAEL 1983-08-12 00:00:00 TS 21.9000 -116.300 75 hurdat_epa main 529 517 O_________O___ hurdat_epa EP091983 21.9000 -116.300 HU 75 1 21.9000 -116.300 4 75 7 337
1983221N13254 1983 43 EP MM ISMAEL 1983-08-12 03:00:00 TS 22.2075 -116.418 main 517 507 P_________P___ EP091983 22.1774 -116.408 HU 72 1 22.2977 -116.447 4 72 7 343
1983221N13254 1983 43 EP MM ISMAEL 1983-08-12 06:00:00 TS 22.5518 -116.518 70 hurdat_epa main 501 490 O_________P___ hurdat_epa EP091983 22.5000 -116.500 HU 70 1 22.7073 -116.573 4 70 8 344
1983221N13254 1983 43 EP MM ISMAEL 1983-08-12 09:00:00 TS 23.0171 -116.659 main 499 478 P_________P___ EP091983 22.9850 -116.650 HU 67 1 23.1133 -116.687 4 67 10 345
1983221N13254 1983 43 EP MM ISMAEL 1983-08-12 12:00:00 TS 23.5000 -116.800 65 hurdat_epa main 478 445 O_________O___ hurdat_epa EP091983 23.5000 -116.800 HU 65 1 23.5000 -116.800 4 65 9 346
1983221N13254 1983 43 EP MM ISMAEL 1983-08-12 15:00:00 TS 23.9178 -116.905 main 445 415 P_________P___ EP091983 23.9375 -116.900 HU 62 0 23.8587 -116.921 4 63 8 346
1983221N13254 1983 43 EP MM ISMAEL 1983-08-12 18:00:00 TS 24.2737 -117.011 60 hurdat_epa main 415 404 O_________P___ hurdat_epa EP091983 24.3000 -117.000 TS 60 0 24.1949 -117.043 4 62 7 341
1983221N13254 1983 43 EP MM ISMAEL 1983-08-12 21:00:00 TS 24.5565 -117.149 main 396 394 P_________P___ EP091983 24.5725 -117.143 TS 60 0 24.5087 -117.168 4 61 6 333
1983221N13254 1983 43 EP MM ISMAEL 1983-08-13 00:00:00 TS 24.8000 -117.300 60 hurdat_epa main 394 384 O_________O___ hurdat_epa EP091983 24.8000 -117.300 TS 60 0 24.8000 -117.300 2 60 6 331
1983221N13254 1983 43 EP MM ISMAEL 1983-08-13 03:00:00 TS 25.0493 -117.447 main 384 372 P_________P___ EP091983 25.0500 -117.450 TS 57 0 25.0471 -117.439 2 53 6 332
1983221N13254 1983 43 EP MM ISMAEL 1983-08-13 06:00:00 TS 25.2944 -117.596 55 hurdat_epa main 372 363 O_________P___ hurdat_epa EP091983 25.3000 -117.600 TS 55 0 25.2774 -117.586 2 47 5 331
1983221N13254 1983 43 EP MM ISMAEL 1983-08-13 09:00:00 TS 25.5197 -117.742 main 363 356 P_________P___ EP091983 25.5200 -117.743 TS 45 0 25.5190 -117.739 2 41 6 332
1983221N13254 1983 43 EP MM ISMAEL 1983-08-13 12:00:00 TS 25.8000 -117.900 35 hurdat_epa main 357 346 O_________O___ hurdat_epa EP091983 25.8000 -117.900 TS 35 0 25.8000 -117.900 2 35 8 335
1983221N13254 1983 43 EP MM ISMAEL 1983-08-13 15:00:00 TS 26.2186 -118.099 main 349 343 P_________P___ EP091983 26.2350 -118.100 TS 35 0 26.1692 -118.095 2 33 9 338
1983221N13254 1983 43 EP MM ISMAEL 1983-08-13 18:00:00 TS 26.6694 -118.298 35 hurdat_epa main 344 341 O_________P___ hurdat_epa EP091983 26.7000 -118.300 TS 35 0 26.5777 -118.294 2 32 9 338
1983221N13254 1983 43 EP MM ISMAEL 1983-08-13 21:00:00 TS 27.0537 -118.472 main 351 349 P_________P___ EP091983 27.0725 -118.473 TS 32 -1 26.9974 -118.470 2 31 8 340
1983221N13254 1983 43 EP MM ISMAEL 1983-08-14 00:00:00 TS 27.4000 -118.600 30 hurdat_epa main 356 354 O_________O___ hurdat_epa EP091983 27.4000 -118.600 TD 30 -1 27.4000 -118.600 1 30 7 345
1983221N13254 1983 43 EP MM ISMAEL 1983-08-14 03:00:00 TS 27.7160 -118.676 main 363 352 P_________P___ EP091983 27.7000 -118.680 TD 27 -1 27.7642 -118.664 1 27 6 352
1983221N13254 1983 43 EP MM ISMAEL 1983-08-14 06:00:00 TS 28.0237 -118.693 25 hurdat_epa main 352 333 O_________P___ hurdat_epa EP091983 28.0000 -118.700 TD 25 -1 28.0948 -118.674 1 25 6 1
1983221N13254 1983 43 EP MM ISMAEL 1983-08-14 09:00:00 TS 28.3539 -118.660 main 327 302 P_________P___ EP091983 28.3375 -118.665 TD 22 -1 28.4030 -118.646 1 22 7 7
1983221N13254 1983 43 EP MM ISMAEL 1983-08-14 12:00:00 TS 28.7000 -118.600 20 hurdat_epa main 302 O_________O___ hurdat_epa EP091983 28.7000 -118.600 TD 20 -1 28.7000 -118.600 1 20 7 10

About IBTrACS Database

This database is a web-friendly format of International Best Track Archive for Climate Stewardship (IBTrACS), a global best track data archive curated by NOAA dating back to 1842.

Updated: 2021-11-26